createdAt,value
2023-05-08T00:04:12.985Z,17.45
2023-05-08T00:09:44.682Z,17.4
2023-05-08T00:15:16.303Z,17.51
2023-05-08T00:20:48.028Z,17.4
2023-05-08T00:26:19.791Z,17.48
2023-05-08T00:31:51.426Z,17.57
2023-05-08T00:37:23.070Z,17.6
2023-05-08T00:42:54.852Z,17.48
2023-05-08T00:48:26.564Z,17.47
2023-05-08T00:53:58.364Z,17.5
2023-05-08T00:59:36.417Z,17.49
2023-05-08T01:05:08.192Z,17.52
2023-05-08T01:10:39.824Z,17.47
2023-05-08T01:16:11.718Z,17.43
2023-05-08T01:21:43.303Z,17.41
2023-05-08T01:27:15.086Z,17.37
2023-05-08T01:32:46.812Z,17.37
2023-05-08T01:38:18.774Z,17.34
2023-05-08T01:43:50.349Z,17.29
2023-05-08T01:49:22.037Z,17.38
2023-05-08T01:54:53.671Z,17.42
2023-05-08T02:00:29.810Z,17.42
2023-05-08T02:06:01.799Z,17.43
2023-05-08T02:11:33.337Z,17.44
2023-05-08T02:17:05.040Z,17.43
2023-05-08T02:22:37.116Z,17.4
2023-05-08T02:28:08.536Z,17.35
2023-05-08T02:33:40.235Z,17.35
2023-05-08T02:39:11.886Z,17.31
2023-05-08T02:44:43.612Z,17.26
2023-05-08T02:50:15.290Z,17.29
2023-05-08T02:55:47.291Z,17.28
2023-05-08T03:01:25.276Z,17.22
2023-05-08T03:06:56.999Z,17.23
2023-05-08T03:12:28.808Z,17.17
2023-05-08T03:18:00.446Z,17.12
2023-05-08T03:23:31.999Z,17.14
2023-05-08T03:29:03.734Z,17.14
2023-05-08T03:34:35.524Z,17.19
2023-05-08T03:40:07.165Z,17.15
2023-05-08T03:45:38.908Z,17.21
2023-05-08T03:51:10.585Z,17.15
2023-05-08T03:56:42.307Z,17.08
2023-05-08T04:02:18.586Z,17.05
2023-05-08T04:07:50.350Z,17.06
2023-05-08T04:13:21.973Z,17.07
2023-05-08T04:18:53.611Z,17.03
2023-05-08T04:24:25.465Z,17.06
2023-05-08T04:29:57.126Z,17.08
2023-05-08T04:35:28.831Z,17.1
2023-05-08T04:41:00.558Z,17.1
2023-05-08T04:46:32.403Z,17.14
2023-05-08T04:52:03.970Z,17.14
2023-05-08T04:57:35.842Z,17.17
2023-05-08T05:03:11.882Z,17.18
2023-05-08T05:08:43.527Z,17.13
2023-05-08T05:14:15.410Z,17.02
2023-05-08T05:19:46.969Z,17.03
2023-05-08T05:25:18.823Z,17.18
2023-05-08T05:30:50.397Z,17.2
2023-05-08T05:36:22.121Z,17.27
2023-05-08T05:41:53.971Z,17.21
2023-05-08T05:47:25.721Z,17.01
2023-05-08T05:52:57.380Z,16.87
2023-05-08T05:58:29.054Z,17.15
2023-05-08T06:04:05.421Z,17.31
2023-05-08T06:09:37.108Z,17.38
2023-05-08T06:15:08.696Z,17.33
2023-05-08T06:20:40.469Z,17.23
2023-05-08T06:26:12.029Z,17.13
2023-05-08T06:31:43.749Z,17.13
2023-05-08T06:37:15.648Z,17.2
2023-05-08T06:42:47.337Z,17.31
2023-05-08T06:48:19.000Z,17.21
2023-05-08T06:53:50.638Z,17.25
2023-05-08T06:59:22.392Z,17.36
2023-05-08T07:04:58.468Z,17.36
2023-05-08T07:10:30.163Z,17.39
2023-05-08T07:16:01.927Z,17.44
2023-05-08T07:21:33.664Z,17.48
2023-05-08T07:27:05.502Z,17.32
2023-05-08T07:32:37.090Z,17.22
2023-05-08T07:38:08.793Z,17.26
2023-05-08T07:43:40.502Z,17.31
2023-05-08T07:49:12.343Z,17.38
2023-05-08T07:54:44.338Z,17.51
2023-05-08T08:00:15.761Z,17.55
2023-05-08T08:05:51.793Z,17.51
2023-05-08T08:11:23.511Z,17.38
2023-05-08T08:16:55.349Z,17.5
2023-05-08T08:22:26.949Z,17.38
2023-05-08T08:27:58.685Z,17.57
2023-05-08T08:33:30.409Z,17.65
2023-05-08T08:39:02.130Z,17.72
2023-05-08T08:44:33.934Z,17.61
2023-05-08T08:50:05.726Z,17.7
2023-05-08T08:55:37.356Z,17.76
2023-05-08T09:01:09.050Z,17.5
2023-05-08T09:06:45.226Z,17.62
2023-05-08T09:12:16.871Z,17.5
2023-05-08T09:17:48.753Z,17.66
2023-05-08T09:23:20.444Z,17.82
2023-05-08T09:28:52.139Z,17.94
2023-05-08T09:34:23.872Z,17.76
2023-05-08T09:39:55.495Z,17.66
2023-05-08T09:45:27.316Z,17.48
2023-05-08T09:50:58.994Z,17.86
2023-05-08T09:56:30.693Z,17.86
2023-05-08T10:02:02.460Z,17.68
2023-05-08T10:07:38.558Z,17.77
2023-05-08T10:13:10.224Z,17.86
2023-05-08T10:18:41.973Z,17.98
2023-05-08T10:24:13.698Z,17.95
2023-05-08T10:29:45.455Z,18.21
2023-05-08T10:35:17.221Z,18.3
2023-05-08T10:40:49.035Z,18.11
2023-05-08T10:46:20.646Z,18.6
2023-05-08T10:51:52.446Z,18.75
2023-05-08T10:57:24.185Z,19.0
2023-05-08T11:02:55.890Z,18.84
2023-05-08T11:08:31.929Z,18.68
2023-05-08T11:14:03.754Z,19.08
2023-05-08T11:19:35.465Z,19.01
2023-05-08T11:25:07.181Z,19.11
2023-05-08T11:30:38.892Z,18.76
2023-05-08T11:36:10.637Z,18.92
2023-05-08T11:41:42.302Z,19.15
2023-05-08T11:47:14.161Z,18.94
2023-05-08T11:52:45.834Z,19.17
2023-05-08T11:58:17.618Z,19.09
2023-05-08T12:03:49.380Z,19.23
2023-05-08T12:09:25.359Z,19.48
2023-05-08T12:14:57.179Z,19.57
2023-05-08T12:20:28.900Z,18.89
2023-05-08T12:26:00.487Z,18.61
2023-05-08T12:31:32.467Z,18.45
2023-05-08T12:37:03.948Z,18.16
2023-05-08T12:42:35.816Z,18.6
2023-05-08T12:48:07.472Z,18.97
2023-05-08T12:53:39.218Z,19.0
2023-05-08T12:59:10.818Z,19.07
2023-05-08T13:04:42.941Z,18.77
2023-05-08T13:10:19.701Z,19.17
2023-05-08T13:15:50.408Z,18.73
2023-05-08T13:21:22.083Z,18.71
2023-05-08T13:26:54.061Z,18.78
2023-05-08T13:32:25.589Z,19.06
2023-05-08T13:37:57.256Z,19.15
2023-05-08T13:43:29.096Z,18.65
2023-05-08T13:49:01.045Z,19.09
2023-05-08T13:54:32.579Z,18.76
2023-05-08T14:00:04.363Z,18.97
2023-05-08T14:05:35.904Z,18.98
2023-05-08T14:11:14.149Z,19.05
2023-05-08T14:16:45.860Z,18.92
2023-05-08T14:22:17.582Z,18.76
2023-05-08T14:27:49.316Z,18.6
2023-05-08T14:33:21.173Z,18.99
2023-05-08T14:38:52.667Z,18.99
2023-05-08T14:44:24.507Z,18.77
2023-05-08T14:49:56.068Z,18.77
2023-05-08T14:55:27.930Z,19.07
2023-05-08T15:00:59.525Z,19.1
2023-05-08T15:06:31.209Z,19.1
2023-05-08T15:12:07.310Z,19.13
2023-05-08T15:17:39.124Z,18.91
2023-05-08T15:23:10.742Z,19.09
2023-05-08T15:28:42.486Z,19.04
2023-05-08T15:34:14.231Z,19.05
2023-05-08T15:39:45.933Z,18.88
2023-05-08T15:45:17.631Z,19.0
2023-05-08T15:50:49.506Z,18.7
2023-05-08T15:56:21.153Z,18.96
2023-05-08T16:01:53.679Z,19.03
2023-05-08T16:07:24.750Z,19.02
2023-05-08T16:13:02.863Z,19.01
2023-05-08T16:18:34.523Z,19.03
2023-05-08T16:24:06.650Z,18.63
2023-05-08T16:29:37.961Z,18.84
2023-05-08T16:35:09.688Z,19.05
2023-05-08T16:40:41.331Z,18.97
2023-05-08T16:46:13.221Z,19.17
2023-05-08T16:51:44.827Z,19.17
2023-05-08T16:57:16.606Z,19.25
2023-05-08T17:02:48.299Z,19.18
2023-05-08T17:08:19.978Z,19.09
2023-05-08T17:13:56.149Z,19.2
2023-05-08T17:19:28.091Z,19.12
2023-05-08T17:24:59.507Z,19.3
2023-05-08T17:30:31.238Z,19.31
2023-05-08T17:36:03.185Z,19.29
2023-05-08T17:41:34.777Z,19.32
2023-05-08T17:47:06.438Z,19.22
2023-05-08T17:52:38.167Z,19.11
2023-05-08T17:58:10.298Z,18.76
2023-05-08T18:03:41.701Z,18.76
2023-05-08T18:09:13.465Z,18.96
2023-05-08T18:14:49.525Z,18.99
2023-05-08T18:20:21.371Z,18.95
2023-05-08T18:25:53.073Z,18.95
2023-05-08T18:31:24.687Z,18.95
2023-05-08T18:36:58.119Z,18.9
2023-05-08T18:42:28.236Z,18.85
2023-05-08T18:48:00.043Z,18.73
2023-05-08T18:53:33.046Z,18.69
2023-05-08T18:59:03.413Z,18.67
2023-05-08T19:04:35.050Z,18.63
2023-05-08T19:10:06.987Z,18.56
2023-05-08T19:15:43.396Z,18.48
2023-05-08T19:21:14.716Z,18.39
2023-05-08T19:26:46.538Z,18.35
2023-05-08T19:32:18.315Z,18.34
2023-05-08T19:37:50.418Z,18.24
2023-05-08T19:43:21.875Z,18.07
2023-05-08T19:48:53.361Z,17.9
2023-05-08T19:54:25.066Z,17.96
2023-05-08T19:59:56.811Z,17.81
2023-05-08T20:05:28.681Z,17.82
2023-05-08T20:11:00.397Z,17.78
2023-05-08T20:16:36.341Z,17.56
2023-05-08T20:22:08.112Z,17.66
2023-05-08T20:27:39.812Z,17.56
2023-05-08T20:33:11.585Z,17.47
2023-05-08T20:38:43.273Z,17.42
2023-05-08T20:44:14.965Z,17.38
2023-05-08T20:49:46.880Z,17.33
2023-05-08T20:55:18.419Z,17.36
2023-05-08T21:00:50.384Z,17.3
2023-05-08T21:06:21.863Z,17.14
2023-05-08T21:11:53.596Z,17.17
2023-05-08T21:17:29.692Z,17.25
2023-05-08T21:23:01.548Z,17.25
2023-05-08T21:28:33.290Z,17.19
2023-05-08T21:34:05.025Z,17.18
2023-05-08T21:39:36.613Z,17.16
2023-05-08T21:45:08.459Z,17.1
2023-05-08T21:50:40.193Z,16.96
2023-05-08T21:56:11.892Z,17.0
2023-05-08T22:01:43.618Z,17.01
2023-05-08T22:07:15.222Z,17.0
2023-05-08T22:12:47.138Z,16.99
2023-05-08T22:18:23.279Z,16.93
2023-05-08T22:23:54.761Z,16.95
2023-05-08T22:29:26.622Z,16.97
2023-05-08T22:34:58.333Z,16.99
2023-05-08T22:40:29.922Z,17.01
2023-05-08T22:46:01.776Z,17.02
2023-05-08T22:51:33.547Z,17.0
2023-05-08T22:57:05.257Z,16.98
2023-05-08T23:02:36.869Z,16.92
2023-05-08T23:08:08.609Z,16.83
2023-05-08T23:13:40.258Z,16.69
2023-05-08T23:19:16.369Z,16.59
2023-05-08T23:24:48.204Z,16.6
2023-05-08T23:30:19.832Z,16.52
2023-05-08T23:35:51.537Z,16.54
2023-05-08T23:41:23.400Z,16.49
2023-05-08T23:46:55.237Z,16.47
2023-05-08T23:52:26.938Z,16.42
2023-05-08T23:57:58.447Z,16.39
